Time;durP1;ratioP1;P1;durP2;ratioP2;P2;SDS_P1;SDS_P2;PMS_P1;PMS_P2;Temp;Humidity;BMP_temperature;BMP_pressure;BME280_temperature;BME280_humidity;BME280_pressure;Samples;Min_cycle;Max_cycle;Signal;HPM_P1;HPM_P2
2021/12/30 00:01:20;;;;;;;151.85;71.85;;;;;;;3.18;100.00;98686.65;4310115;80;28508;-80
2021/12/30 00:07:22;;;;;;;164.05;78.47;;;;;;;3.32;100.00;98696.88;4298336;81;28525;-79
2021/12/30 00:13:24;;;;;;;174.53;81.82;;;;;;;3.34;100.00;98693.52;4317072;80;28563;-81
2021/12/30 00:19:26;;;;;;;168.68;79.90;;;;;;;3.41;100.00;98697.55;4315328;80;28661;-80
2021/12/30 00:25:27;;;;;;;159.40;76.60;;;;;;;3.45;100.00;98706.80;4311221;81;28445;-80
2021/12/30 00:31:29;;;;;;;147.07;72.35;;;;;;;3.39;100.00;98709.41;4298544;82;28542;-80
2021/12/30 00:37:30;;;;;;;163.68;80.47;;;;;;;3.45;100.00;98721.91;4317144;80;28486;-82
2021/12/30 00:43:31;;;;;;;184.37;83.70;;;;;;;3.45;100.00;98729.89;4329365;80;28504;-82
2021/12/30 00:49:33;;;;;;;172.68;80.70;;;;;;;3.38;100.00;98727.67;4335623;80;28454;-81
2021/12/30 00:55:35;;;;;;;178.95;82.37;;;;;;;3.45;100.00;98729.89;4302572;80;28492;-82
2021/12/30 01:01:37;;;;;;;179.95;81.10;;;;;;;3.55;100.00;98735.70;4326117;80;28565;-82
2021/12/30 01:07:39;;;;;;;180.05;81.87;;;;;;;3.44;100.00;98736.22;4307566;81;28533;-82
2021/12/30 01:13:44;;;;;;;183.32;85.25;;;;;;;3.53;100.00;98735.07;4327567;80;28535;-81
2021/12/30 01:19:45;;;;;;;172.93;84.42;;;;;;;3.48;100.00;98743.63;4318981;81;28518;-82
2021/12/30 01:25:46;;;;;;;177.05;83.50;;;;;;;3.55;100.00;98743.67;4307494;80;28575;-82
2021/12/30 01:31:48;;;;;;;173.85;83.92;;;;;;;3.50;100.00;98734.14;4325907;80;28479;-82
2021/12/30 01:37:50;;;;;;;185.15;85.80;;;;;;;3.54;100.00;98746.02;4331564;80;28445;-82
2021/12/30 01:43:52;;;;;;;191.98;89.80;;;;;;;3.54;100.00;98739.38;4299594;80;28532;-84
2021/12/30 01:49:53;;;;;;;190.50;87.85;;;;;;;3.54;100.00;98748.67;4322429;80;28523;-80
2021/12/30 01:55:55;;;;;;;181.78;85.53;;;;;;;3.57;100.00;98753.59;4365658;80;28467;-83
2021/12/30 02:01:57;;;;;;;173.62;81.72;;;;;;;3.48;100.00;98757.41;4335557;80;28445;-83
2021/12/30 02:07:58;;;;;;;167.10;81.22;;;;;;;3.54;100.00;98755.81;4373906;80;28500;-83
2021/12/30 02:13:59;;;;;;;179.63;83.52;;;;;;;3.58;100.00;98743.80;4346949;80;28450;-83
2021/12/30 02:20:06;;;;;;;176.72;83.80;;;;;;;3.34;100.00;98737.89;4318783;80;28489;-83
2021/12/30 02:26:15;;;;;;;174.68;83.80;;;;;;;3.53;100.00;98730.25;4300516;81;28514;-84
2021/12/30 02:32:17;;;;;;;177.53;79.42;;;;;;;3.40;100.00;98731.80;4289925;81;28466;-84
2021/12/30 02:38:20;;;;;;;174.05;81.55;;;;;;;3.27;100.00;98747.11;4281993;81;28488;-84
2021/12/30 02:44:22;;;;;;;170.25;77.82;;;;;;;3.38;100.00;98755.58;4309758;81;28629;-83
2021/12/30 02:50:24;;;;;;;174.50;79.77;;;;;;;3.19;100.00;98764.01;4298073;81;28966;-83
2021/12/30 02:56:27;;;;;;;166.37;78.57;;;;;;;3.00;100.00;98755.33;4296444;81;28476;-83
2021/12/30 03:02:29;;;;;;;161.35;78.47;;;;;;;3.17;100.00;98756.73;4305957;80;29199;-83
2021/12/30 03:08:31;;;;;;;170.68;79.35;;;;;;;3.01;100.00;98743.69;4296541;81;28451;-81
2021/12/30 03:14:32;;;;;;;168.35;78.92;;;;;;;2.87;100.00;98729.48;4304871;81;28468;-80
2021/12/30 03:20:35;;;;;;;166.85;77.90;;;;;;;2.80;100.00;98734.70;4318870;81;28533;-83
2021/12/30 03:26:37;;;;;;;169.15;78.00;;;;;;;2.90;100.00;98730.42;4323337;80;44321;-82
2021/12/30 03:32:39;;;;;;;167.22;78.30;;;;;;;2.79;100.00;98741.02;4305526;80;28523;-83
2021/12/30 03:38:46;;;;;;;163.95;76.17;;;;;;;2.97;100.00;98763.19;4321879;80;28494;-84
2021/12/30 03:44:48;;;;;;;153.30;73.67;;;;;;;3.09;100.00;98785.27;4327199;80;28443;-81
2021/12/30 03:50:51;;;;;;;154.50;74.05;;;;;;;3.18;100.00;98785.47;4346502;80;28465;-82
2021/12/30 03:56:53;;;;;;;156.85;74.35;;;;;;;3.29;100.00;98790.77;4342666;80;28497;-82
2021/12/30 04:02:54;;;;;;;167.40;76.75;;;;;;;3.22;100.00;98817.28;4315223;80;28527;-81
2021/12/30 04:08:57;;;;;;;164.85;75.55;;;;;;;3.51;100.00;98822.17;4301989;80;28582;-81
2021/12/30 04:14:58;;;;;;;158.00;74.92;;;;;;;3.45;100.00;98810.47;4332689;80;28486;-81
2021/12/30 04:20:59;;;;;;;150.55;72.32;;;;;;;3.26;100.00;98807.91;4340131;80;28484;-82
2021/12/30 04:27:01;;;;;;;157.50;76.65;;;;;;;3.14;100.00;98814.73;4348839;80;28546;-82
2021/12/30 04:33:04;;;;;;;165.20;77.17;;;;;;;3.30;100.00;98819.83;4347745;80;28501;-80
2021/12/30 04:39:06;;;;;;;163.00;76.85;;;;;;;3.25;100.00;98822.20;4335063;80;28462;-81
2021/12/30 04:45:10;;;;;;;158.37;73.28;;;;;;;3.25;100.00;98836.02;4332520;80;28477;-82
2021/12/30 04:51:13;;;;;;;157.07;70.85;;;;;;;3.18;100.00;98847.91;4342516;80;28493;-83
2021/12/30 04:57:14;;;;;;;148.53;70.97;;;;;;;3.30;100.00;98860.17;4324511;80;28557;-83
2021/12/30 05:03:16;;;;;;;164.90;75.62;;;;;;;3.41;100.00;98854.36;4340938;82;28501;-85
2021/12/30 05:09:17;;;;;;;160.67;72.65;;;;;;;3.48;100.00;98858.41;4344899;80;43800;-84
2021/12/30 05:15:19;;;;;;;149.77;69.85;;;;;;;3.51;100.00;98876.66;4343987;80;28490;-81
2021/12/30 05:21:20;;;;;;;139.80;64.87;;;;;;;3.52;100.00;98885.44;4352364;80;28566;-82
2021/12/30 05:27:21;;;;;;;159.85;72.25;;;;;;;3.49;100.00;98872.05;4338328;80;28542;-81
2021/12/30 05:33:23;;;;;;;153.15;70.28;;;;;;;3.56;100.00;98883.55;4331278;80;28509;-79
2021/12/30 05:39:24;;;;;;;145.12;71.20;;;;;;;3.49;100.00;98882.68;4339558;80;28457;-81
2021/12/30 05:45:26;;;;;;;149.12;70.30;;;;;;;3.41;100.00;98871.64;4322238;80;28502;-79
2021/12/30 05:51:28;;;;;;;147.50;68.47;;;;;;;3.29;100.00;98847.41;4315582;80;28481;-82
2021/12/30 05:57:29;;;;;;;152.80;69.60;;;;;;;3.17;100.00;98868.33;4335916;80;28466;-81
2021/12/30 06:03:30;;;;;;;149.35;67.32;;;;;;;2.98;100.00;98898.97;4319079;80;28453;-79
2021/12/30 06:09:31;;;;;;;135.30;65.32;;;;;;;3.20;100.00;98883.08;4330494;80;28493;-80
2021/12/30 06:15:32;;;;;;;139.35;64.82;;;;;;;3.15;100.00;98867.70;4324830;80;28518;-82
2021/12/30 06:21:34;;;;;;;138.10;64.60;;;;;;;3.18;100.00;98883.77;4324449;80;28494;-78
2021/12/30 06:27:35;;;;;;;140.30;65.37;;;;;;;3.17;100.00;98902.02;4346182;80;28511;-78
2021/12/30 06:33:36;;;;;;;142.07;67.05;;;;;;;3.40;100.00;98901.08;4315247;80;28517;-79
2021/12/30 06:39:38;;;;;;;151.57;67.80;;;;;;;3.41;100.00;98903.53;4334933;80;28507;-79
2021/12/30 06:45:40;;;;;;;142.50;65.80;;;;;;;3.15;100.00;98920.83;4289731;80;28473;-78
2021/12/30 06:51:41;;;;;;;129.35;63.42;;;;;;;3.53;100.00;98925.14;4319688;80;28476;-81
2021/12/30 06:57:43;;;;;;;151.05;70.12;;;;;;;3.56;100.00;98933.25;4318546;82;28471;-80
2021/12/30 07:03:44;;;;;;;180.55;82.17;;;;;;;3.60;100.00;98942.48;4368491;80;28552;-80
2021/12/30 07:09:47;;;;;;;169.65;77.67;;;;;;;3.40;100.00;98955.56;4342384;81;28559;-80
2021/12/30 07:15:48;;;;;;;157.57;75.28;;;;;;;3.76;100.00;98949.41;4317130;82;28508;-78
2021/12/30 07:21:50;;;;;;;155.87;73.10;;;;;;;3.82;100.00;98933.20;4318624;80;28544;-76
2021/12/30 07:27:54;;;;;;;159.48;75.47;;;;;;;3.99;100.00;98921.30;4322721;80;28492;-77
2021/12/30 07:33:56;;;;;;;158.25;74.15;;;;;;;3.98;100.00;98925.47;4333170;79;28501;-78
2021/12/30 07:39:57;;;;;;;164.25;76.30;;;;;;;4.00;100.00;98920.77;4311272;80;28548;-81
2021/12/30 07:45:59;;;;;;;166.57;77.27;;;;;;;4.10;100.00;98923.12;4325617;80;28571;-82
2021/12/30 07:52:01;;;;;;;152.07;72.72;;;;;;;4.05;100.00;98944.45;4324139;80;28509;-81
2021/12/30 07:58:03;;;;;;;153.25;70.83;;;;;;;4.16;100.00;98955.61;4333739;80;28563;-80
2021/12/30 08:04:06;;;;;;;156.12;73.52;;;;;;;4.33;100.00;98957.52;4326916;80;28599;-78
2021/12/30 08:10:13;;;;;;;164.25;75.72;;;;;;;4.49;100.00;98968.39;4327146;80;28502;-77
2021/12/30 08:16:14;;;;;;;171.02;79.92;;;;;;;4.44;100.00;98977.45;4323751;80;28526;-78
2021/12/30 08:22:15;;;;;;;173.22;80.30;;;;;;;4.48;100.00;98985.38;4317755;80;28558;-78
2021/12/30 08:28:19;;;;;;;160.90;75.75;;;;;;;4.05;100.00;98967.59;4302527;80;28492;-80
2021/12/30 08:34:23;;;;;;;150.45;72.65;;;;;;;4.27;100.00;98952.95;4314905;81;28552;-79
2021/12/30 08:40:24;;;;;;;145.92;71.30;;;;;;;4.51;100.00;98951.70;4306734;80;28505;-78
2021/12/30 08:46:26;;;;;;;149.60;74.27;;;;;;;4.56;100.00;98949.80;4295756;81;28486;-78
2021/12/30 08:52:29;;;;;;;152.30;75.22;;;;;;;4.60;100.00;98959.87;4290729;81;28559;-78
2021/12/30 08:58:30;;;;;;;166.80;78.28;;;;;;;4.88;100.00;98958.20;4316415;81;28502;-80
2021/12/30 09:04:33;;;;;;;157.75;75.72;;;;;;;5.13;100.00;98947.88;4198839;83;28549;-79
2021/12/30 09:10:40;;;;;;;149.57;70.35;;;;;;;5.18;100.00;98958.44;4221148;82;28558;-79
2021/12/30 09:16:41;;;;;;;145.20;70.77;;;;;;;5.38;100.00;98959.88;4258024;80;28519;-80
2021/12/30 09:22:42;;;;;;;140.75;68.62;;;;;;;5.79;100.00;98980.33;4167052;84;28535;-75
2021/12/30 09:28:43;;;;;;;151.22;72.90;;;;;;;5.98;100.00;98981.39;4303561;80;28556;-79
2021/12/30 09:34:45;;;;;;;154.12;74.10;;;;;;;6.02;100.00;98971.67;4311937;80;28509;-79
2021/12/30 09:40:57;;;;;;;139.32;67.47;;;;;;;6.23;100.00;98975.48;4327219;80;28555;-81
2021/12/30 09:47:04;;;;;;;140.20;65.42;;;;;;;6.30;100.00;98974.19;4344721;80;28519;-77
2021/12/30 09:53:06;;;;;;;125.33;59.58;;;;;;;6.50;100.00;98968.83;4317757;80;28605;-81
2021/12/30 09:59:10;;;;;;;107.67;52.53;;;;;;;6.61;100.00;98959.89;4306958;80;28517;-82
2021/12/30 10:05:16;;;;;;;110.08;54.05;;;;;;;6.73;100.00;98958.22;4310408;80;28503;-82
2021/12/30 10:11:25;;;;;;;107.80;53.08;;;;;;;6.92;100.00;98954.39;4325649;80;28532;-83
2021/12/30 10:17:27;;;;;;;118.17;54.60;;;;;;;6.80;100.00;98946.18;4322189;80;28503;-84
2021/12/30 10:23:29;;;;;;;108.90;52.03;;;;;;;6.78;100.00;98953.09;4312530;80;28521;-85
2021/12/30 10:29:44;;;;;;;108.75;49.50;;;;;;;6.81;100.00;98961.18;4313632;81;28463;-83
2021/12/30 10:35:47;;;;;;;;;;;;;;;7.01;100.00;98976.36;4314177;80;28557;-77
2021/12/30 10:42:11;;;;;;;86.02;42.30;;;;;;;6.86;100.00;98956.55;4327090;80;20316;-80
2021/12/30 10:48:13;;;;;;;95.85;45.75;;;;;;;7.27;100.00;98952.73;4312476;80;28489;-78
2021/12/30 10:54:26;;;;;;;87.95;43.73;;;;;;;7.46;100.00;98948.86;4313752;80;28515;-79
2021/12/30 11:00:32;;;;;;;72.60;37.95;;;;;;;7.70;100.00;98955.83;4319414;80;28474;-81
2021/12/30 11:06:33;;;;;;;67.53;35.10;;;;;;;7.84;100.00;98957.92;4300979;80;28520;-79
2021/12/30 11:12:41;;;;;;;60.38;31.62;;;;;;;7.56;100.00;98957.25;4310079;80;28549;-82
2021/12/30 11:18:42;;;;;;;59.45;30.68;;;;;;;7.60;100.00;98963.83;4332626;80;28509;-78
2021/12/30 11:24:45;;;;;;;65.65;33.92;;;;;;;7.57;100.00;98968.25;4335348;80;28570;-81
2021/12/30 11:30:47;;;;;;;63.98;34.03;;;;;;;7.45;100.00;98981.99;4339828;80;28537;-80
2021/12/30 11:36:48;;;;;;;62.80;30.55;;;;;;;7.34;100.00;98965.57;4336751;80;28466;-79
2021/12/30 11:42:56;;;;;;;61.98;30.27;;;;;;;7.31;100.00;98966.51;4337992;80;28490;-81
2021/12/30 11:48:57;;;;;;;66.62;32.70;;;;;;;7.46;100.00;98968.42;4341449;80;28559;-82
2021/12/30 11:54:58;;;;;;;79.60;38.33;;;;;;;7.36;100.00;98977.41;4333203;80;28552;-80
2021/12/30 12:01:14;;;;;;;88.87;45.20;;;;;;;7.42;100.00;98977.08;4338923;80;28521;-79
2021/12/30 12:07:15;;;;;;;106.63;52.17;;;;;;;7.43;100.00;98979.52;4316116;80;28528;-81
2021/12/30 12:13:37;;;;;;;119.53;59.00;;;;;;;7.35;100.00;98971.22;4349047;80;28540;-80
2021/12/30 12:19:52;;;;;;;125.40;61.45;;;;;;;7.39;100.00;98964.44;4323891;80;28549;-79
2021/12/30 12:26:14;;;;;;;124.90;60.33;;;;;;;7.23;100.00;98963.56;4309089;80;28545;-81
2021/12/30 12:32:33;;;;;;;133.18;68.20;;;;;;;7.29;100.00;98976.60;4289043;81;28467;-81
2021/12/30 12:38:46;;;;;;;125.42;64.92;;;;;;;7.46;100.00;98974.27;4305569;81;28490;-85
2021/12/30 12:45:10;;;;;;;126.27;63.15;;;;;;;7.20;100.00;98971.48;4285101;81;28535;-79
2021/12/30 12:51:27;;;;;;;118.02;59.85;;;;;;;7.42;100.00;98986.44;4288509;81;28511;-79
2021/12/30 12:57:28;;;;;;;109.22;55.08;;;;;;;7.46;100.00;98980.45;4304399;81;28541;-83
2021/12/30 13:03:30;;;;;;;112.00;55.92;;;;;;;7.59;100.00;98976.08;4301455;79;28594;-81
2021/12/30 13:09:32;;;;;;;125.50;60.88;;;;;;;7.59;100.00;98976.08;4181642;85;28518;-86
2021/12/30 13:15:39;;;;;;;131.50;65.62;;;;;;;7.54;100.00;98986.08;4115661;84;28519;-81
2021/12/30 13:22:00;;;;;;;134.75;66.30;;;;;;;7.47;100.00;98990.13;4092890;85;28510;-84
2021/12/30 13:28:04;;;;;;;137.72;66.60;;;;;;;7.32;100.00;99002.41;4074106;85;28517;-82
2021/12/30 13:34:06;;;;;;;122.70;59.27;;;;;;;7.19;100.00;99008.61;4184811;83;28484;-78
2021/12/30 13:40:33;;;;;;;115.32;56.18;;;;;;;7.21;100.00;98997.19;4205780;83;28541;-80
2021/12/30 13:46:34;;;;;;;108.00;55.15;;;;;;;7.23;100.00;99004.48;4198494;84;28512;-77
2021/12/30 13:52:41;;;;;;;119.20;60.60;;;;;;;7.13;100.00;99026.81;4186421;85;28635;-79
2021/12/30 13:58:45;;;;;;;124.53;61.92;;;;;;;6.93;100.00;99037.05;4202267;83;28534;-78
2021/12/30 14:04:46;;;;;;;120.60;60.20;;;;;;;6.95;100.00;99032.31;4111672;85;28532;-80
2021/12/30 14:11:02;;;;;;;131.05;63.05;;;;;;;6.90;100.00;99028.09;4128441;85;28522;-76
2021/12/30 14:17:04;;;;;;;114.47;55.05;;;;;;;7.10;100.00;99025.91;4130995;84;28491;-79
2021/12/30 14:23:10;;;;;;;102.67;52.08;;;;;;;7.00;100.00;99026.34;4121133;84;28535;-80
2021/12/30 14:29:16;;;;;;;99.72;51.23;;;;;;;7.00;100.00;99030.36;4129527;84;28504;-80
2021/12/30 14:35:19;;;;;;;;;;;;;;;7.04;100.00;99033.44;4132215;84;28508;-80
2021/12/30 14:41:23;;;;;;;106.27;52.23;;;;;;;7.15;100.00;99035.98;4127698;84;20222;-77
2021/12/30 14:47:31;;;;;;;109.37;53.13;;;;;;;6.94;100.00;99032.02;4142059;84;28508;-77
2021/12/30 14:53:32;;;;;;;97.82;51.55;;;;;;;7.02;100.00;99014.92;4134149;84;28495;-75
2021/12/30 14:59:33;;;;;;;90.10;45.60;;;;;;;7.06;100.00;99023.36;4246411;82;28537;-78
2021/12/30 15:05:35;;;;;;;84.95;41.90;;;;;;;7.11;100.00;99029.72;4203483;83;28522;-79
2021/12/30 15:11:37;;;;;;;82.33;41.08;;;;;;;7.27;100.00;99026.81;4208464;83;28547;-78
2021/12/30 15:17:39;;;;;;;89.40;45.67;;;;;;;7.23;100.00;99029.08;4215436;83;28514;-80
2021/12/30 15:23:40;;;;;;;90.50;44.67;;;;;;;7.47;100.00;99037.44;4107740;86;28511;-81
2021/12/30 15:29:45;;;;;;;95.35;47.45;;;;;;;7.35;100.00;99007.33;4129518;85;28528;-80
2021/12/30 15:35:49;;;;;;;99.05;50.40;;;;;;;7.28;100.00;99010.53;4167231;85;28506;-82
2021/12/30 15:41:52;;;;;;;81.35;41.05;;;;;;;7.19;100.00;99023.85;4166940;85;28544;-80
2021/12/30 15:47:54;;;;;;;83.37;41.75;;;;;;;7.27;100.00;99028.95;4119361;85;28588;-80
2021/12/30 15:53:56;;;;;;;81.28;42.62;;;;;;;7.29;100.00;99036.27;4194197;83;28565;-77
2021/12/30 15:59:57;;;;;;;87.47;44.08;;;;;;;7.28;100.00;99021.23;4195141;83;28536;-83
2021/12/30 16:05:59;;;;;;;91.28;45.70;;;;;;;7.12;100.00;99034.53;4206009;83;28572;-81
2021/12/30 16:12:00;;;;;;;88.58;44.42;;;;;;;7.21;100.00;99050.66;4210581;83;28532;-81
2021/12/30 16:18:02;;;;;;;91.63;45.38;;;;;;;7.37;100.00;99068.12;4190909;83;28512;-75
2021/12/30 16:24:04;;;;;;;88.95;44.08;;;;;;;7.27;100.00;99063.72;4206930;83;28488;-82
2021/12/30 16:30:12;;;;;;;76.40;37.83;;;;;;;7.08;100.00;99058.72;4202504;83;28575;-80
2021/12/30 16:36:13;;;;;;;77.72;38.35;;;;;;;6.94;100.00;99068.59;4180754;83;28501;-80
2021/12/30 16:42:14;;;;;;;82.70;41.73;;;;;;;7.18;100.00;99067.64;4201267;83;28564;-77
2021/12/30 16:48:17;;;;;;;86.53;42.85;;;;;;;7.19;100.00;99059.42;4117701;85;28638;-78
2021/12/30 16:54:19;;;;;;;75.95;40.33;;;;;;;7.07;100.00;99093.17;4199227;83;28527;-77
2021/12/30 17:00:23;;;;;;;73.87;38.67;;;;;;;6.92;100.00;99069.32;4205659;83;28453;-77
2021/12/30 17:06:25;;;;;;;71.45;35.38;;;;;;;6.84;100.00;99067.69;4119709;84;28578;-76
2021/12/30 17:12:27;;;;;;;63.58;32.73;;;;;;;6.80;100.00;99051.23;4056678;85;28509;-76
2021/12/30 17:18:28;;;;;;;61.30;31.93;;;;;;;6.52;100.00;99050.91;4186787;82;28618;-77
2021/12/30 17:24:30;;;;;;;61.13;31.60;;;;;;;6.59;100.00;99062.13;4192676;82;28984;-79
2021/12/30 17:30:31;;;;;;;66.37;33.58;;;;;;;6.75;100.00;99071.06;4216889;82;28490;-76
2021/12/30 17:36:33;;;;;;;76.80;38.45;;;;;;;6.77;100.00;99062.34;4133939;84;28496;-76
2021/12/30 17:42:35;;;;;;;74.72;37.60;;;;;;;6.83;100.00;99058.03;4117377;85;28547;-74
2021/12/30 17:48:37;;;;;;;65.17;32.45;;;;;;;6.67;100.00;99061.41;4128903;84;28531;-79
2021/12/30 17:54:39;;;;;;;64.95;32.75;;;;;;;6.64;100.00;99043.62;4124575;83;28514;-79
2021/12/30 18:00:42;;;;;;;68.65;33.60;;;;;;;6.59;100.00;99033.55;4125335;84;28524;-78
2021/12/30 18:06:44;;;;;;;63.73;31.40;;;;;;;6.73;100.00;99053.08;4138666;83;28612;-77
2021/12/30 18:12:46;;;;;;;71.28;35.40;;;;;;;6.95;100.00;99056.87;4190090;83;28549;-80
2021/12/30 18:18:47;;;;;;;76.35;36.15;;;;;;;7.04;100.00;99040.93;4269886;81;28546;-84
2021/12/30 18:24:50;;;;;;;65.03;32.40;;;;;;;6.90;100.00;99050.81;4281969;81;28475;-79
2021/12/30 18:30:51;;;;;;;54.25;26.70;;;;;;;7.03;100.00;99063.84;4280814;81;28555;-81
2021/12/30 18:36:53;;;;;;;59.00;28.98;;;;;;;7.23;100.00;99041.91;4270898;81;28452;-84
2021/12/30 18:42:55;;;;;;;56.88;28.12;;;;;;;7.10;100.00;99038.77;4283320;81;28481;-82
2021/12/30 18:48:58;;;;;;;56.40;27.67;;;;;;;7.00;100.00;99024.17;4281534;81;28548;-79
2021/12/30 18:55:00;;;;;;;51.98;25.43;;;;;;;7.08;100.00;99019.95;4281505;81;28505;-79
2021/12/30 19:01:03;;;;;;;47.55;24.90;;;;;;;6.94;100.00;99023.99;4281839;81;28636;-80
2021/12/30 19:07:08;;;;;;;37.95;18.95;;;;;;;7.03;100.00;99037.95;4263207;81;28516;-75
2021/12/30 19:13:14;;;;;;;37.63;18.32;;;;;;;7.12;100.00;99043.89;4272992;81;28565;-78
2021/12/30 19:19:15;;;;;;;33.92;18.27;;;;;;;7.24;100.00;99054.28;4281239;81;28537;-73
2021/12/30 19:25:18;;;;;;;35.92;18.07;;;;;;;7.31;100.00;99044.06;4280937;81;28529;-81
2021/12/30 19:31:19;;;;;;;34.95;18.82;;;;;;;7.66;100.00;99054.48;4282279;81;28686;-80
2021/12/30 19:37:20;;;;;;;38.42;18.95;;;;;;;7.75;100.00;99047.02;4279125;81;28511;-81
2021/12/30 19:43:21;;;;;;;40.20;20.00;;;;;;;7.69;100.00;99033.97;4285976;81;28521;-77
2021/12/30 19:49:25;;;;;;;45.90;24.12;;;;;;;7.66;100.00;99031.20;4292517;81;28536;-78
2021/12/30 19:55:30;;;;;;;53.48;26.48;;;;;;;7.71;100.00;99044.48;4259723;81;28590;-85
2021/12/30 20:01:33;;;;;;;52.65;27.70;;;;;;;7.86;100.00;99050.87;4287216;81;28465;-85
2021/12/30 20:07:37;;;;;;;47.43;23.98;;;;;;;7.75;100.00;99049.16;4259583;81;28575;-82
2021/12/30 20:13:39;;;;;;;44.73;23.10;;;;;;;7.70;100.00;99041.47;4215264;82;28503;-83
2021/12/30 20:19:42;;;;;;;38.55;20.15;;;;;;;7.68;100.00;99044.38;4207062;82;28614;-78
2021/12/30 20:25:45;;;;;;;34.13;18.23;;;;;;;7.60;100.00;99037.91;4213422;82;28571;-81
2021/12/30 20:31:46;;;;;;;40.80;18.87;;;;;;;7.59;100.00;99036.28;4213324;83;28957;-82
2021/12/30 20:37:48;;;;;;;46.20;23.42;;;;;;;7.44;100.00;99039.20;4213185;82;28572;-83
2021/12/30 20:43:51;;;;;;;47.80;24.55;;;;;;;7.49;100.00;99040.22;4204467;82;28517;-81
2021/12/30 20:49:52;;;;;;;49.88;26.05;;;;;;;7.65;100.00;99036.75;4218704;83;28560;-82
2021/12/30 20:55:53;;;;;;;49.55;24.75;;;;;;;7.68;100.00;99033.14;4219825;82;28537;-84
2021/12/30 21:01:55;;;;;;;48.28;24.67;;;;;;;7.75;100.00;99038.98;4218577;82;28463;-82
2021/12/30 21:08:01;;;;;;;48.65;24.52;;;;;;;7.87;100.00;99027.11;4235143;82;28545;-83
2021/12/30 21:14:03;;;;;;;53.38;25.68;;;;;;;7.87;100.00;99027.11;4214842;83;28516;-76
2021/12/30 21:20:09;;;;;;;53.83;26.48;;;;;;;7.88;100.00;99024.73;4227376;82;28493;-82
2021/12/30 21:26:10;;;;;;;51.08;25.62;;;;;;;7.92;100.00;99021.42;4231039;82;28490;-84
2021/12/30 21:32:12;;;;;;;50.75;24.25;;;;;;;7.95;100.00;99014.28;4221088;82;28558;-84
2021/12/30 21:38:17;;;;;;;48.65;23.30;;;;;;;7.85;100.00;99010.41;4223190;83;28455;-82
2021/12/30 21:44:19;;;;;;;43.13;23.35;;;;;;;7.78;100.00;99013.97;4229008;82;28516;-84
2021/12/30 21:50:21;;;;;;;43.80;22.05;;;;;;;7.89;100.00;99020.48;4210545;83;28539;-84
2021/12/30 21:56:23;;;;;;;40.60;20.40;;;;;;;7.85;100.00;99016.60;4230178;82;28487;-85
2021/12/30 22:02:24;;;;;;;39.78;20.10;;;;;;;8.01;100.00;99014.45;4233879;82;28471;-82
2021/12/30 22:08:26;;;;;;;33.88;17.30;;;;;;;8.07;100.00;99014.44;4221826;82;28516;-82
2021/12/30 22:14:28;;;;;;;31.25;16.30;;;;;;;8.14;100.00;99009.54;4207463;82;28522;-85
2021/12/30 22:20:29;;;;;;;48.48;24.90;;;;;;;8.11;100.00;99014.00;4217406;83;28557;-81
2021/12/30 22:26:33;;;;;;;59.10;30.82;;;;;;;7.89;100.00;99014.33;4197528;83;28533;-82
2021/12/30 22:32:36;;;;;;;61.53;30.48;;;;;;;8.04;100.00;99011.36;4213464;83;28539;-82
2021/12/30 22:38:37;;;;;;;52.58;27.93;;;;;;;8.08;100.00;99011.22;4225684;82;28536;-83
2021/12/30 22:44:39;;;;;;;47.10;26.00;;;;;;;8.03;100.00;99005.70;4233834;82;28538;-81
2021/12/30 22:50:41;;;;;;;46.92;26.27;;;;;;;8.11;100.00;99004.09;4223140;82;28597;-83
2021/12/30 22:56:42;;;;;;;47.73;24.65;;;;;;;8.16;100.00;99008.30;4247005;82;28468;-82
2021/12/30 23:02:46;;;;;;;53.98;27.58;;;;;;;8.20;100.00;99008.69;4224718;82;28482;-81
2021/12/30 23:08:49;;;;;;;53.35;28.12;;;;;;;8.27;100.00;99001.94;4225416;82;28578;-82
2021/12/30 23:14:50;;;;;;;49.23;25.65;;;;;;;8.36;100.00;98997.43;4186237;83;28538;-81
2021/12/30 23:20:53;;;;;;;43.78;22.50;;;;;;;8.16;100.00;99010.97;4110988;85;28540;-81
2021/12/30 23:26:54;;;;;;;42.08;22.48;;;;;;;8.39;100.00;99002.87;4112293;85;28492;-80
2021/12/30 23:32:56;;;;;;;40.90;22.37;;;;;;;8.39;100.00;98994.04;4192926;83;28523;-82
2021/12/30 23:39:01;;;;;;;34.10;17.77;;;;;;;8.33;100.00;98985.81;4222642;83;28554;-82
2021/12/30 23:45:05;;;;;;;31.27;17.00;;;;;;;8.39;100.00;98996.18;4199838;83;28541;-80
2021/12/30 23:51:06;;;;;;;33.53;16.15;;;;;;;8.64;100.00;98991.36;4192848;83;28501;-80
2021/12/30 23:57:09;;;;;;;24.10;12.58;;;;;;;9.04;100.00;98992.33;4204251;83;28540;-80
